Time;durP1;ratioP1;P1;durP2;ratioP2;P2;SDS_P1;SDS_P2;PMS_P1;PMS_P2;Temp;Humidity;BMP_temperature;BMP_pressure;BME280_temperature;BME280_humidity;BME280_pressure;Samples;Min_cycle;Max_cycle;Signal;HPM_P1;HPM_P2
2022/07/05 00:01:26;;;;;;;1.33;1.23;;;23.20;99.90;;;;;;6312810;22;20239;-95
2022/07/05 00:04:01;;;;;;;2.70;1.70;;;23.20;99.90;;;;;;6312628;22;20166;-94
2022/07/05 00:07:17;;;;;;;2.47;1.60;;;23.00;99.90;;;;;;6315320;22;20257;-96
2022/07/05 00:09:32;;;;;;;2.03;1.87;;;23.10;99.90;;;;;;6312534;22;20696;-96
2022/07/05 00:12:04;;;;;;;2.30;1.77;;;23.10;99.90;;;;;;6313825;22;20895;-96
2022/07/05 00:14:37;;;;;;;1.53;1.40;;;23.40;99.90;;;;;;6313877;22;20577;-96
2022/07/05 00:17:09;;;;;;;1.40;1.30;;;22.40;99.90;;;;;;6314797;22;20181;-96
2022/07/05 00:19:42;;;;;;;1.40;1.30;;;22.40;99.90;;;;;;6314110;22;20255;-96
2022/07/05 00:22:14;;;;;;;1.77;1.50;;;22.40;99.90;;;;;;6314776;22;20505;-96
2022/07/05 00:24:50;;;;;;;1.63;1.40;;;22.90;99.90;;;;;;6314767;22;20566;-96
2022/07/05 00:27:23;;;;;;;1.63;1.53;;;23.20;99.90;;;;;;6315951;22;20227;-96
2022/07/05 00:29:55;;;;;;;2.93;1.93;;;23.30;99.90;;;;;;6314343;22;20170;-95
2022/07/05 00:32:26;;;;;;;1.53;1.43;;;23.10;99.90;;;;;;6318238;22;20184;-94
2022/07/05 00:34:58;;;;;;;1.80;1.70;;;22.70;99.90;;;;;;6316455;22;20200;-95
2022/07/05 00:37:29;;;;;;;1.80;1.63;;;22.70;99.90;;;;;;6314340;22;20178;-95
2022/07/05 00:40:03;;;;;;;1.70;1.60;;;22.90;99.90;;;;;;6313631;22;20209;-95
2022/07/05 00:42:35;;;;;;;1.77;1.40;;;22.70;99.90;;;;;;6315803;22;20611;-96
2022/07/05 00:45:08;;;;;;;2.33;1.70;;;22.30;99.90;;;;;;6311377;22;20255;-96
2022/07/05 00:47:41;;;;;;;2.10;1.60;;;22.00;99.90;;;;;;6311698;22;20181;-95
2022/07/05 00:50:12;;;;;;;1.80;1.70;;;21.90;99.90;;;;;;6311426;22;20181;-95
2022/07/05 00:52:44;;;;;;;2.07;1.60;;;21.90;99.90;;;;;;6312113;22;20174;-95
2022/07/05 00:55:20;;;;;;;1.80;1.70;;;22.00;99.90;;;;;;6311224;22;20178;-95
2022/07/05 00:57:52;;;;;;;2.23;1.30;;;22.50;99.90;;;;;;6311590;22;20174;-95
2022/07/05 01:00:23;;;;;;;1.90;1.50;;;22.60;99.90;;;;;;6310030;22;20213;-95
2022/07/05 01:02:54;;;;;;;2.03;1.60;;;22.70;99.90;;;;;;6311452;22;20558;-96
2022/07/05 01:05:25;;;;;;;2.13;1.80;;;22.20;99.90;;;;;;6311276;22;20180;-95
2022/07/05 01:07:58;;;;;;;1.37;1.27;;;21.50;99.90;;;;;;6310730;22;20178;-96
2022/07/05 01:10:32;;;;;;;2.00;1.80;;;21.60;99.90;;;;;;6310077;22;20171;-96
2022/07/05 01:13:04;;;;;;;3.33;1.50;;;21.60;99.90;;;;;;6311102;22;20165;-95
2022/07/05 01:15:37;;;;;;;1.60;1.50;;;21.60;99.90;;;;;;6312537;22;20174;-96
2022/07/05 01:18:09;;;;;;;2.90;1.70;;;21.80;99.90;;;;;;6311768;22;20178;-96
2022/07/05 01:20:40;;;;;;;1.70;1.60;;;22.10;99.90;;;;;;6315118;22;20222;-95
2022/07/05 01:23:14;;;;;;;2.63;1.90;;;22.50;99.90;;;;;;6316507;22;20162;-96
2022/07/05 01:25:47;;;;;;;1.70;1.50;;;22.40;99.90;;;;;;6314529;22;20166;-96
2022/07/05 01:28:18;;;;;;;1.60;1.50;;;22.30;99.90;;;;;;6315228;22;20591;-96
2022/07/05 01:30:50;;;;;;;2.00;1.77;;;22.50;99.90;;;;;;6312016;22;20220;-94
2022/07/05 01:33:31;;;;;;;3.40;1.50;;;22.60;99.90;;;;;;6313183;22;20174;-94
2022/07/05 01:36:03;;;;;;;1.53;1.40;;;22.90;99.90;;;;;;6313218;22;20181;-94
2022/07/05 01:38:36;;;;;;;1.53;1.43;;;23.20;99.90;;;;;;6312881;22;20185;-94
2022/07/05 01:41:09;;;;;;;1.57;1.47;;;23.20;99.90;;;;;;6314466;22;20261;-95
2022/07/05 01:43:40;;;;;;;1.83;1.73;;;23.30;99.90;;;;;;6313869;22;20181;-95
2022/07/05 01:46:14;;;;;;;2.00;1.70;;;23.10;99.90;;;;;;6312580;22;20174;-96
2022/07/05 01:48:46;;;;;;;2.00;1.80;;;22.80;99.90;;;;;;6312781;22;20174;-95
2022/07/05 01:51:26;;;;;;;2.00;1.80;;;22.70;99.90;;;;;;6313259;22;20162;-94
2022/07/05 01:54:00;;;;;;;1.70;1.60;;;22.40;99.90;;;;;;6313178;22;20169;-94
2022/07/05 01:56:31;;;;;;;1.70;1.60;;;22.90;99.90;;;;;;6312459;22;20174;-94
2022/07/05 01:59:03;;;;;;;2.50;1.80;;;23.00;99.90;;;;;;6313448;22;20181;-93
2022/07/05 02:01:37;;;;;;;2.10;1.60;;;23.40;99.90;;;;;;6312312;22;20202;-94
2022/07/05 02:04:12;;;;;;;1.80;1.70;;;23.90;99.90;;;;;;6321089;22;20180;-94
2022/07/05 02:06:45;;;;;;;2.00;1.63;;;23.70;99.90;;;;;;6318584;22;20189;-94
2022/07/05 02:09:18;;;;;;;2.10;1.90;;;24.00;99.90;;;;;;6316646;22;20192;-95
2022/07/05 02:11:51;;;;;;;2.13;1.93;;;23.90;99.90;;;;;;6317761;22;20174;-95
2022/07/05 02:14:23;;;;;;;2.07;1.87;;;23.70;99.90;;;;;;6334911;22;20159;-95
2022/07/05 02:16:55;;;;;;;3.00;2.70;;;23.60;99.90;;;;;;6333069;22;20214;-96
2022/07/05 02:19:27;;;;;;;4.17;3.80;;;22.90;99.90;;;;;;6332917;22;20235;-95
2022/07/05 02:21:58;;;;;;;2.10;1.80;;;22.10;99.90;;;;;;6332062;22;20206;-94
2022/07/05 02:24:35;;;;;;;2.47;2.00;;;21.90;99.90;;;;;;6319087;22;20177;-95
2022/07/05 02:27:07;;;;;;;2.17;1.97;;;21.60;99.90;;;;;;6313255;22;20510;-96
2022/07/05 02:29:38;;;;;;;2.10;1.90;;;21.20;99.90;;;;;;6317597;22;20174;-96
2022/07/05 02:32:11;;;;;;;2.67;1.93;;;21.00;99.90;;;;;;6311862;22;20175;-95
2022/07/05 02:34:43;;;;;;;2.37;1.90;;;20.60;99.90;;;;;;6312973;22;20178;-96
2022/07/05 02:37:15;;;;;;;2.13;1.90;;;20.40;99.90;;;;;;6313144;22;20174;-96
2022/07/05 02:39:50;;;;;;;3.97;2.50;;;20.30;99.90;;;;;;6314930;22;20170;-96
2022/07/05 02:42:22;;;;;;;2.43;2.10;;;20.10;99.90;;;;;;6311904;22;20174;-96
2022/07/05 02:44:54;;;;;;;2.20;2.00;;;19.80;99.90;;;;;;6316452;22;20227;-95
2022/07/05 02:47:26;;;;;;;2.00;1.90;;;19.90;99.90;;;;;;6317846;22;20165;-95
2022/07/05 02:49:57;;;;;;;3.10;2.13;;;19.80;99.90;;;;;;6315057;22;20254;-96
2022/07/05 02:52:28;;;;;;;2.20;2.00;;;19.80;99.90;;;;;;6315355;22;20531;-96
2022/07/05 02:55:04;;;;;;;2.20;2.00;;;19.80;99.90;;;;;;6315131;22;20217;-96
2022/07/05 02:57:38;;;;;;;1.73;1.63;;;19.80;99.90;;;;;;6312678;22;20235;-95
2022/07/05 03:00:11;;;;;;;1.90;1.80;;;19.80;99.90;;;;;;6311282;22;20170;-96
2022/07/05 03:02:43;;;;;;;2.33;1.97;;;19.80;99.90;;;;;;6312497;22;20205;-95
2022/07/05 03:05:14;;;;;;;3.13;2.30;;;19.70;99.90;;;;;;6313066;22;20274;-95
2022/07/05 03:07:46;;;;;;;3.40;2.20;;;19.60;99.90;;;;;;6312708;22;20612;-95
2022/07/05 03:10:20;;;;;;;3.17;2.20;;;19.50;99.90;;;;;;6309949;22;20360;-96
2022/07/05 03:12:51;;;;;;;3.60;2.30;;;19.50;99.90;;;;;;6312115;22;20175;-96
2022/07/05 03:15:22;;;;;;;2.10;1.90;;;19.40;99.90;;;;;;6312494;22;20182;-96
2022/07/05 03:17:54;;;;;;;2.63;2.20;;;19.30;99.90;;;;;;6312406;22;20178;-96
2022/07/05 03:20:26;;;;;;;2.80;2.40;;;19.20;99.90;;;;;;6311796;22;20227;-96
2022/07/05 03:22:59;;;;;;;2.70;2.50;;;19.10;99.90;;;;;;6312716;22;20181;-96
2022/07/05 03:25:35;;;;;;;1.83;1.73;;;19.10;99.90;;;;;;6312741;22;20490;-95
2022/07/05 03:28:07;;;;;;;2.70;2.50;;;19.00;99.90;;;;;;6313232;22;20174;-95
2022/07/05 03:30:40;;;;;;;4.50;2.57;;;18.90;99.90;;;;;;6311456;22;20178;-96
2022/07/05 03:33:12;;;;;;;3.20;2.90;;;18.80;99.90;;;;;;6312854;22;20170;-96
2022/07/05 03:35:44;;;;;;;2.67;2.47;;;18.70;99.90;;;;;;6314780;22;20228;-95
2022/07/05 03:38:15;;;;;;;3.10;2.80;;;18.60;99.90;;;;;;6316135;22;20175;-96
2022/07/05 03:41:04;;;;;;;3.03;2.73;;;18.50;99.90;;;;;;6317369;22;20210;-95
2022/07/05 03:43:37;;;;;;;3.37;2.90;;;18.30;99.90;;;;;;6333589;22;20188;-95
2022/07/05 03:46:10;;;;;;;3.37;3.00;;;18.30;99.90;;;;;;6334010;22;20163;-96
2022/07/05 03:48:41;;;;;;;3.50;3.20;;;18.10;99.90;;;;;;6332928;22;20171;-95
2022/07/05 03:51:12;;;;;;;4.60;3.03;;;18.00;99.90;;;;;;6329073;22;20174;-96
2022/07/05 03:53:44;;;;;;;5.37;3.07;;;17.80;99.90;;;;;;6329129;22;20170;-95
2022/07/05 03:56:19;;;;;;;5.33;3.60;;;17.70;99.90;;;;;;6323439;22;20170;-95
2022/07/05 03:58:52;;;;;;;4.63;3.23;;;17.60;99.90;;;;;;6312229;22;20572;-94
2022/07/05 04:01:25;;;;;;;3.60;3.30;;;17.50;99.90;;;;;;6313944;22;20595;-95
2022/07/05 04:03:57;;;;;;;3.73;3.40;;;17.50;99.90;;;;;;6312920;22;20193;-96
2022/07/05 04:06:29;;;;;;;3.93;3.40;;;17.40;99.90;;;;;;6312690;22;20245;-95
2022/07/05 04:09:00;;;;;;;5.03;4.03;;;17.20;99.90;;;;;;6314799;22;20174;-93
2022/07/05 04:11:33;;;;;;;4.13;3.73;;;17.10;99.90;;;;;;6314911;22;20226;-95
2022/07/05 04:14:05;;;;;;;4.10;3.70;;;17.00;99.90;;;;;;6312885;22;20178;-95
2022/07/05 04:16:36;;;;;;;4.13;3.73;;;17.00;99.90;;;;;;6313907;22;20170;-95
2022/07/05 04:19:10;;;;;;;6.07;4.20;;;16.90;99.90;;;;;;6315557;22;20224;-95
2022/07/05 04:21:45;;;;;;;5.20;4.30;;;16.80;99.90;;;;;;6315204;22;20257;-95
2022/07/05 04:24:18;;;;;;;4.97;4.47;;;16.80;99.90;;;;;;6314669;22;20177;-95
2022/07/05 04:26:51;;;;;;;5.90;4.77;;;16.80;99.90;;;;;;6312552;22;20170;-96
2022/07/05 04:29:24;;;;;;;6.10;5.23;;;16.70;99.90;;;;;;6316115;22;20173;-95
2022/07/05 04:34:44;;;;;;;5.97;5.37;;;16.60;99.90;;;;;;6264871;22;20205;-94
2022/07/05 04:37:17;;;;;;;7.57;6.13;;;16.70;99.90;;;;;;6315914;22;20184;-95
2022/07/05 04:39:49;;;;;;;7.27;5.80;;;16.60;99.90;;;;;;6315431;22;20496;-95
2022/07/05 04:42:23;;;;;;;7.20;5.87;;;16.60;99.90;;;;;;6330245;22;20202;-96
2022/07/05 04:44:54;;;;;;;6.77;6.07;;;16.50;99.90;;;;;;6332294;22;20177;-96
2022/07/05 04:47:26;;;;;;;7.00;6.33;;;16.50;99.90;;;;;;6330616;22;20201;-96
2022/07/05 04:50:02;;;;;;;7.53;6.50;;;16.50;99.90;;;;;;6331327;22;20175;-96
2022/07/05 04:52:43;;;;;;;7.73;6.47;;;16.50;99.90;;;;;;6332807;22;20184;-95
2022/07/05 04:55:15;;;;;;;8.07;7.07;;;16.50;99.90;;;;;;6332940;22;20162;-95
2022/07/05 04:57:49;;;;;;;8.77;7.07;;;16.50;99.90;;;;;;6330842;22;20236;-96
2022/07/05 05:00:20;;;;;;;7.77;7.07;;;16.40;99.90;;;;;;6316554;22;20725;-96
2022/07/05 05:02:51;;;;;;;8.73;7.40;;;16.30;99.90;;;;;;6319142;22;20190;-96
2022/07/05 05:05:25;;;;;;;9.13;7.50;;;16.30;99.90;;;;;;6318337;22;20174;-94
2022/07/05 05:07:57;;;;;;;9.80;8.10;;;16.30;99.90;;;;;;6328451;22;20239;-94
2022/07/05 05:10:32;;;;;;;10.20;8.73;;;16.20;99.90;;;;;;6333253;22;20187;-94
2022/07/05 05:13:06;;;;;;;10.43;8.67;;;16.20;99.90;;;;;;6325528;22;20174;-93
2022/07/05 05:15:37;;;;;;;9.70;8.70;;;16.10;99.90;;;;;;6329373;22;20169;-96
2022/07/05 05:18:09;;;;;;;10.57;9.43;;;16.10;99.90;;;;;;6320174;22;20167;-96
2022/07/05 05:20:41;;;;;;;11.20;9.93;;;16.00;99.90;;;;;;6315819;22;20204;-94
2022/07/05 05:23:12;;;;;;;10.43;9.40;;;15.90;99.90;;;;;;6318220;22;20228;-95
2022/07/05 05:25:44;;;;;;;11.20;10.07;;;15.80;99.90;;;;;;6316601;22;20617;-94
2022/07/05 05:28:17;;;;;;;11.10;10.03;;;15.70;99.90;;;;;;6317919;22;20245;-94
2022/07/05 05:30:51;;;;;;;14.10;10.60;;;15.70;99.90;;;;;;6317152;22;20171;-95
2022/07/05 05:33:24;;;;;;;12.77;11.07;;;15.70;99.90;;;;;;6321486;22;20232;-94
2022/07/05 05:35:59;;;;;;;12.50;11.20;;;15.60;99.90;;;;;;6318223;22;20174;-95
2022/07/05 05:38:32;;;;;;;15.97;12.50;;;15.60;99.90;;;;;;6322773;22;20173;-95
2022/07/05 05:41:05;;;;;;;14.60;12.37;;;15.50;99.90;;;;;;6315561;22;20597;-95
2022/07/05 05:43:38;;;;;;;14.77;13.03;;;15.50;99.90;;;;;;6314247;22;20198;-96
2022/07/05 05:46:10;;;;;;;17.03;13.90;;;15.50;99.90;;;;;;6314167;22;20208;-94
2022/07/05 05:48:42;;;;;;;16.20;13.90;;;15.40;99.90;;;;;;6314883;22;20198;-94
2022/07/05 05:51:15;;;;;;;17.23;14.43;;;15.40;99.90;;;;;;6313536;22;20174;-96
2022/07/05 05:53:48;;;;;;;16.93;15.23;;;15.30;99.90;;;;;;6313407;22;20178;-94
2022/07/05 05:56:19;;;;;;;16.60;14.67;;;15.30;99.90;;;;;;6316276;22;20220;-96
2022/07/05 05:58:53;;;;;;;17.73;15.67;;;15.30;99.90;;;;;;6316938;22;20236;-95
2022/07/05 06:01:26;;;;;;;17.60;15.43;;;15.20;99.90;;;;;;6313844;22;20178;-96
2022/07/05 06:03:57;;;;;;;18.97;16.97;;;15.20;99.90;;;;;;6314653;22;20202;-96
2022/07/05 06:06:30;;;;;;;21.20;18.87;;;15.10;99.90;;;;;;6315382;22;20770;-96
2022/07/05 06:09:03;;;;;;;21.57;19.20;;;15.20;99.90;;;;;;6313788;22;20174;-95
2022/07/05 06:11:35;;;;;;;23.57;20.13;;;15.10;99.90;;;;;;6313177;22;20244;-95
2022/07/05 06:14:11;;;;;;;25.60;20.67;;;15.00;99.90;;;;;;6314465;22;20182;-96
2022/07/05 06:16:44;;;;;;;24.60;21.87;;;14.90;99.90;;;;;;6313922;22;20174;-95
2022/07/05 06:19:15;;;;;;;25.63;22.90;;;14.90;99.90;;;;;;6315546;22;20173;-96
2022/07/05 06:21:46;;;;;;;29.80;26.60;;;14.80;99.90;;;;;;6313187;22;20235;-95
2022/07/05 06:24:18;;;;;;;28.73;25.77;;;14.80;99.90;;;;;;6316239;22;20185;-95
2022/07/05 06:26:52;;;;;;;31.10;27.83;;;14.80;99.90;;;;;;6316569;22;20182;-95
2022/07/05 06:29:25;;;;;;;32.00;28.53;;;14.80;99.90;;;;;;6314340;22;20173;-95
2022/07/05 06:31:59;;;;;;;33.43;29.43;;;14.70;99.90;;;;;;6312599;22;20227;-95
2022/07/05 06:34:31;;;;;;;35.10;31.40;;;14.60;99.90;;;;;;6313983;22;20213;-95
2022/07/05 06:37:07;;;;;;;36.40;32.30;;;14.60;99.90;;;;;;6316353;22;20170;-96
2022/07/05 06:39:39;;;;;;;37.80;33.73;;;14.50;99.90;;;;;;6313412;22;20686;-96
2022/07/05 06:42:11;;;;;;;35.87;31.93;;;14.50;99.90;;;;;;6314159;22;20175;-96
2022/07/05 06:44:47;;;;;;;37.67;33.10;;;14.40;99.90;;;;;;6314814;22;20246;-96
2022/07/05 06:47:18;;;;;;;38.93;34.87;;;14.40;99.90;;;;;;6314400;22;20178;-96
2022/07/05 06:49:51;;;;;;;40.97;36.67;;;14.30;99.90;;;;;;6313858;22;20477;-96
2022/07/05 06:52:26;;;;;;;43.03;37.33;;;14.30;99.90;;;;;;6314767;22;20174;-96
2022/07/05 06:54:58;;;;;;;44.97;38.00;;;14.20;99.90;;;;;;6314697;22;20177;-96
2022/07/05 06:57:30;;;;;;;42.43;36.93;;;14.20;99.90;;;;;;6318972;22;20240;-96
2022/07/05 07:00:04;;;;;;;41.60;37.10;;;14.10;99.90;;;;;;6313750;22;20589;-96
2022/07/05 07:02:56;;;;;;;43.20;38.50;;;14.10;99.90;;;;;;6316306;22;20249;-96
2022/07/05 07:05:48;;;;;;;42.20;37.60;;;14.00;99.90;;;;;;6313574;22;20285;-95
2022/07/05 07:11:25;;;;;;;45.27;40.40;;;13.90;99.90;;;;;;6315166;22;20252;-96
2022/07/05 07:13:56;;;;;;;48.03;42.90;;;13.90;99.90;;;;;;6315706;22;20175;-96
2022/07/05 07:16:34;;;;;;;49.30;43.67;;;13.90;99.90;;;;;;6292967;22;20203;-96
2022/07/05 07:19:06;;;;;;;50.87;44.67;;;13.90;99.90;;;;;;6328483;22;20231;-96
2022/07/05 07:21:43;;;;;;;51.53;45.80;;;13.80;99.90;;;;;;6331485;22;20189;-96
2022/07/05 07:24:17;;;;;;;52.00;46.37;;;13.80;99.90;;;;;;6332735;22;20201;-96
2022/07/05 07:27:07;;;;;;;52.53;46.80;;;13.80;99.90;;;;;;6332364;22;20208;-96
2022/07/05 07:29:42;;;;;;;56.67;49.40;;;13.70;99.90;;;;;;6319503;22;20185;-96
2022/07/05 07:32:18;;;;;;;55.77;49.67;;;13.60;99.90;;;;;;6312970;22;20712;-95
2022/07/05 07:34:51;;;;;;;56.00;49.80;;;13.60;99.90;;;;;;6315463;22;20174;-94
2022/07/05 07:37:29;;;;;;;57.77;51.47;;;13.60;99.90;;;;;;6314629;22;20200;-95
2022/07/05 07:40:04;;;;;;;56.67;50.53;;;13.50;99.90;;;;;;6315964;22;20174;-94
2022/07/05 07:42:35;;;;;;;58.60;52.07;;;13.50;99.90;;;;;;6314756;22;20181;-95
2022/07/05 07:45:30;;;;;;;61.77;53.70;;;13.50;99.90;;;;;;6322175;22;20170;-96
2022/07/05 07:48:05;;;;;;;59.77;52.70;;;13.40;99.90;;;;;;6312784;22;20628;-95
2022/07/05 07:50:36;;;;;;;60.33;53.87;;;13.40;99.90;;;;;;6311908;22;20618;-95
2022/07/05 07:53:09;;;;;;;60.37;53.03;;;13.40;99.90;;;;;;6312997;22;20189;-96
2022/07/05 07:55:43;;;;;;;63.33;55.43;;;13.30;99.90;;;;;;6322512;22;20174;-96
2022/07/05 07:58:18;;;;;;;64.10;56.87;;;13.30;99.90;;;;;;6333241;22;20162;-95
2022/07/05 08:00:49;;;;;;;63.63;56.47;;;13.30;99.90;;;;;;6332666;22;20189;-96
2022/07/05 08:03:23;;;;;;;67.43;60.07;;;13.20;99.90;;;;;;6333714;22;20257;-94
2022/07/05 08:05:56;;;;;;;71.33;60.93;;;13.20;99.90;;;;;;6333552;22;20161;-95
2022/07/05 08:08:29;;;;;;;68.13;58.83;;;13.20;99.90;;;;;;6333527;22;20170;-95
2022/07/05 08:11:04;;;;;;;68.70;61.23;;;13.10;99.90;;;;;;6332936;22;20193;-96
2022/07/05 08:13:35;;;;;;;73.27;62.27;;;13.10;99.90;;;;;;6333686;22;20181;-95
2022/07/05 08:16:07;;;;;;;68.80;61.37;;;13.10;99.90;;;;;;6333469;22;20174;-96
2022/07/05 08:21:35;;;;;;;72.07;63.20;;;13.00;99.90;;;;;;6317279;22;20621;-95
2022/07/05 08:24:08;;;;;;;70.00;62.33;;;13.00;99.90;;;;;;6313347;22;20194;-96
2022/07/05 08:26:42;;;;;;;77.20;66.70;;;12.90;99.90;;;;;;6314895;22;20184;-95
2022/07/05 08:29:14;;;;;;;72.07;63.37;;;12.90;99.90;;;;;;6313172;22;20174;-96
2022/07/05 08:31:53;;;;;;;70.57;62.70;;;12.90;99.90;;;;;;6313001;22;20219;-95
2022/07/05 08:34:28;;;;;;;74.37;63.00;;;12.80;99.90;;;;;;6313062;22;20228;-95
2022/07/05 08:37:02;;;;;;;73.20;62.83;;;12.80;99.90;;;;;;6312561;22;20178;-95
2022/07/05 08:39:37;;;;;;;72.47;62.63;;;12.80;99.90;;;;;;6312316;22;20174;-95
2022/07/05 08:42:12;;;;;;;72.53;63.27;;;12.70;99.90;;;;;;6311750;22;20205;-94
2022/07/05 08:44:47;;;;;;;77.73;67.07;;;12.70;99.90;;;;;;6312603;22;20204;-93
2022/07/05 08:47:21;;;;;;;71.43;62.27;;;12.70;99.90;;;;;;6312723;22;20273;-94
2022/07/05 08:49:57;;;;;;;73.20;64.27;;;12.60;99.90;;;;;;6312223;22;20249;-94
2022/07/05 08:52:31;;;;;;;74.47;65.40;;;12.60;99.90;;;;;;6313051;22;20777;-94
2022/07/05 08:55:05;;;;;;;69.43;61.80;;;12.60;99.90;;;;;;6314382;22;20174;-96
2022/07/05 08:57:36;;;;;;;70.67;61.73;;;12.50;99.90;;;;;;6314890;22;20243;-96
2022/07/05 09:00:09;;;;;;;70.17;60.30;;;12.50;99.90;;;;;;6325863;22;20185;-96
2022/07/05 09:02:40;;;;;;;66.93;57.43;;;12.50;99.90;;;;;;6333489;22;20166;-96
2022/07/05 09:08:06;;;;;;;65.80;55.17;;;12.50;99.90;;;;;;6296780;22;20304;-96
2022/07/05 09:10:40;;;;;;;60.90;53.43;;;12.50;99.90;;;;;;6294081;22;20178;-95
2022/07/05 09:13:18;;;;;;;62.30;52.93;;;12.40;99.90;;;;;;6293314;22;20346;-94
2022/07/05 09:15:49;;;;;;;58.60;51.50;;;12.40;99.90;;;;;;6283587;22;20179;-94
2022/07/05 09:18:42;;;;;;;58.83;50.40;;;12.50;99.90;;;;;;6281645;22;20180;-94
2022/07/05 09:21:18;;;;;;;56.60;49.10;;;12.50;99.90;;;;;;6281111;22;20183;-94
2022/07/05 09:24:04;;;;;;;56.80;50.03;;;12.50;99.90;;;;;;6281232;22;20210;-95
2022/07/05 09:26:37;;;;;;;55.27;47.93;;;12.40;99.90;;;;;;6280954;22;20197;-94
2022/07/05 09:29:15;;;;;;;57.03;48.90;;;12.40;99.90;;;;;;6281465;22;20179;-94
2022/07/05 09:32:07;;;;;;;52.93;45.93;;;12.40;99.90;;;;;;6280499;22;20179;-94
2022/07/05 09:34:39;;;;;;;54.30;47.80;;;12.30;99.90;;;;;;6280524;22;20519;-94
2022/07/05 09:37:10;;;;;;;56.50;47.10;;;12.30;99.90;;;;;;6282847;22;20176;-94
2022/07/05 09:39:44;;;;;;;54.47;46.50;;;12.30;99.90;;;;;;6281140;22;20189;-94
2022/07/05 09:42:20;;;;;;;52.87;44.80;;;12.40;99.90;;;;;;6280993;22;20179;-94
2022/07/05 09:44:52;;;;;;;56.00;46.73;;;12.30;99.90;;;;;;6282409;22;20205;-94
2022/07/05 09:47:26;;;;;;;56.13;47.20;;;12.30;99.90;;;;;;6282981;22;20270;-95
2022/07/05 09:50:03;;;;;;;53.87;45.80;;;12.20;99.90;;;;;;6283046;22;20175;-94
2022/07/05 09:52:40;;;;;;;54.63;46.07;;;12.20;99.90;;;;;;6289647;22;20216;-93
2022/07/05 09:55:16;;;;;;;56.53;45.27;;;12.20;99.90;;;;;;6283556;22;20273;-94
2022/07/05 09:57:50;;;;;;;54.47;45.60;;;12.10;99.90;;;;;;6283027;22;20178;-94
2022/07/05 10:00:24;;;;;;;51.60;44.80;;;12.10;99.90;;;;;;6282891;22;20175;-95
2022/07/05 10:03:00;;;;;;;55.63;44.20;;;12.10;99.90;;;;;;6282505;22;20221;-94
2022/07/05 10:05:34;;;;;;;50.40;42.63;;;12.10;99.90;;;;;;6281707;22;20958;-94
2022/07/05 10:08:06;;;;;;;52.83;41.40;;;12.10;99.90;;;;;;6282101;22;20186;-95
2022/07/05 10:10:43;;;;;;;47.73;42.10;;;12.10;99.90;;;;;;6281247;22;20171;-95
2022/07/05 10:13:17;;;;;;;50.23;42.67;;;12.10;99.90;;;;;;6284363;22;20163;-95
2022/07/05 10:15:49;;;;;;;46.67;40.80;;;12.10;99.90;;;;;;6284627;22;20244;-95
2022/07/05 10:18:31;;;;;;;47.90;41.20;;;12.10;99.90;;;;;;6287047;22;20504;-95
2022/07/05 10:21:06;;;;;;;48.67;41.17;;;12.10;99.90;;;;;;6281991;22;20175;-95
2022/07/05 10:23:38;;;;;;;48.13;40.93;;;12.10;99.90;;;;;;6281888;22;20174;-95
2022/07/05 10:26:15;;;;;;;46.53;41.17;;;12.00;99.90;;;;;;6281651;22;20587;-95
2022/07/05 10:28:50;;;;;;;48.47;39.43;;;12.00;99.90;;;;;;6282575;22;20424;-95
2022/07/05 10:31:31;;;;;;;43.77;38.97;;;12.00;99.90;;;;;;6280963;22;20186;-95
2022/07/05 10:34:07;;;;;;;46.77;41.40;;;12.00;99.90;;;;;;6281548;22;20597;-95
2022/07/05 10:37:00;;;;;;;48.53;40.40;;;11.90;99.90;;;;;;6282212;22;20198;-93
2022/07/05 10:39:32;;;;;;;47.57;39.53;;;11.90;99.90;;;;;;6282055;22;20182;-93
2022/07/05 10:42:09;;;;;;;45.33;38.60;;;11.90;99.90;;;;;;6281961;22;20175;-93
2022/07/05 10:44:40;;;;;;;44.00;38.37;;;11.90;99.90;;;;;;6290284;22;20273;-93
2022/07/05 10:47:13;;;;;;;49.77;39.80;;;11.90;99.90;;;;;;6281679;22;20171;-95
2022/07/05 10:49:45;;;;;;;43.13;38.37;;;11.90;99.90;;;;;;6281664;22;20174;-96
2022/07/05 10:52:28;;;;;;;46.53;38.00;;;11.90;99.90;;;;;;6280522;22;20175;-95
2022/07/05 10:55:21;;;;;;;47.87;39.13;;;11.80;99.90;;;;;;6281589;22;20237;-95
2022/07/05 10:58:22;;;;;;;45.97;38.77;;;11.80;99.90;;;;;;6281367;22;20182;-94
2022/07/05 11:01:22;;;;;;;44.60;37.87;;;11.70;99.90;;;;;;6280240;22;20201;-95
2022/07/05 11:03:57;;;;;;;46.27;38.83;;;11.70;99.90;;;;;;6262528;22;20621;-94
2022/07/05 11:06:30;;;;;;;46.30;38.87;;;11.80;99.90;;;;;;6280917;22;20217;-94
2022/07/05 11:09:22;;;;;;;48.70;39.60;;;11.70;99.90;;;;;;6281613;22;20224;-95
2022/07/05 11:12:08;;;;;;;45.90;38.93;;;11.70;99.90;;;;;;6280814;22;20186;-94
2022/07/05 11:15:14;;;;;;;49.00;39.87;;;11.70;99.90;;;;;;6281590;22;20567;-94
2022/07/05 11:17:46;;;;;;;44.83;39.93;;;11.70;99.90;;;;;;6281744;22;20194;-94
2022/07/05 11:20:34;;;;;;;45.17;39.63;;;11.60;99.90;;;;;;6280607;22;20175;-95
2022/07/05 11:23:09;;;;;;;46.73;38.03;;;11.60;99.90;;;;;;6281705;22;20175;-94
2022/07/05 11:25:47;;;;;;;45.87;39.73;;;11.60;99.90;;;;;;6281549;22;20612;-94
2022/07/05 11:28:24;;;;;;;47.63;40.67;;;11.60;99.90;;;;;;6280928;22;20194;-95
2022/07/05 11:31:11;;;;;;;49.33;40.53;;;11.60;99.90;;;;;;6278207;22;20186;-95
2022/07/05 11:33:44;;;;;;;49.77;41.43;;;11.60;99.90;;;;;;6281425;22;20497;-94
2022/07/05 11:36:28;;;;;;;46.10;40.80;;;11.60;99.90;;;;;;6281711;22;20229;-93
2022/07/05 11:39:26;;;;;;;51.37;39.93;;;11.50;99.90;;;;;;6281730;22;20171;-94
2022/07/05 11:41:57;;;;;;;51.30;41.67;;;11.50;99.90;;;;;;6281957;22;20175;-95
2022/07/05 11:44:34;;;;;;;53.57;43.20;;;11.50;99.90;;;;;;6282198;22;20258;-96
2022/07/05 11:47:26;;;;;;;50.27;40.73;;;11.50;99.90;;;;;;6281453;22;20179;-93
2022/07/05 11:49:59;;;;;;;50.00;42.27;;;11.50;99.90;;;;;;6280974;22;20655;-96
2022/07/05 11:52:32;;;;;;;56.57;43.37;;;11.50;99.90;;;;;;6281565;22;20269;-94
2022/07/05 11:55:07;;;;;;;51.13;42.47;;;11.40;99.90;;;;;;6280468;22;20175;-94
2022/07/05 11:57:40;;;;;;;52.80;43.23;;;11.50;99.90;;;;;;6281201;22;20183;-94
2022/07/05 12:00:13;;;;;;;54.40;43.90;;;11.50;99.90;;;;;;6281003;22;20179;-94
2022/07/05 12:02:49;;;;;;;53.27;43.80;;;11.40;99.90;;;;;;6281775;22;20233;-94
2022/07/05 12:05:21;;;;;;;53.27;44.60;;;11.40;99.90;;;;;;6279934;22;20281;-93
2022/07/05 12:07:52;;;;;;;51.63;43.33;;;11.40;99.90;;;;;;6281572;22;20256;-95
2022/07/05 12:13:33;;;;;;;55.50;43.23;;;11.40;99.90;;;;;;6281445;22;20179;-95
2022/07/05 12:16:06;;;;;;;57.27;45.50;;;11.40;99.90;;;;;;6280993;22;20644;-95
2022/07/05 12:18:52;;;;;;;55.80;44.20;;;11.30;99.90;;;;;;6280676;22;20175;-95
2022/07/05 12:21:24;;;;;;;57.60;44.40;;;11.30;99.90;;;;;;6280465;22;20177;-95
2022/07/05 12:23:56;;;;;;;57.17;44.37;;;11.30;99.90;;;;;;6280862;22;20234;-95
2022/07/05 12:26:27;;;;;;;55.43;44.93;;;11.30;99.90;;;;;;6280839;22;20253;-96
2022/07/05 12:28:59;;;;;;;53.90;44.33;;;11.30;99.90;;;;;;6280692;22;20262;-95
2022/07/05 12:31:33;;;;;;;54.83;44.37;;;11.30;99.90;;;;;;6280455;22;20179;-95
2022/07/05 12:37:08;;;;;;;52.77;42.83;;;11.30;99.90;;;;;;5044594;27;3265575;-95
2022/07/05 12:39:39;;;;;;;56.53;43.23;;;11.40;99.90;;;;;;5140763;28;20182;-96
2022/07/05 12:42:32;;;;;;;53.60;42.87;;;11.40;99.90;;;;;;5138139;28;20206;-95
2022/07/05 12:45:13;;;;;;;52.67;42.00;;;11.40;99.90;;;;;;5147151;28;20209;-96
2022/07/05 12:47:53;;;;;;;55.37;43.33;;;11.40;99.90;;;;;;5153325;27;20201;-95
2022/07/05 12:50:28;;;;;;;57.90;44.50;;;11.40;99.90;;;;;;5148039;28;20238;-96
2022/07/05 12:59:04;;;;;;;51.33;40.90;;;11.50;99.90;;;;;;5136504;28;20210;-95
2022/07/05 13:01:39;;;;;;;54.53;41.60;;;11.50;99.90;;;;;;5120101;28;20216;-95
2022/07/05 13:04:12;;;;;;;52.53;43.30;;;11.60;99.90;;;;;;5135419;28;20300;-96
2022/07/05 13:06:45;;;;;;;52.27;42.37;;;11.60;99.90;;;;;;5130418;28;20195;-95
2022/07/05 13:09:31;;;;;;;52.60;41.67;;;11.60;99.90;;;;;;5117394;28;20552;-95
2022/07/05 13:12:12;;;;;;;51.80;42.67;;;11.60;99.90;;;;;;5116769;28;20267;-95
2022/07/05 13:14:45;;;;;;;52.37;42.10;;;11.60;99.90;;;;;;5115211;28;20693;-96
2022/07/05 13:17:20;;;;;;;50.63;42.17;;;11.70;99.90;;;;;;5114985;28;20211;-96
2022/07/05 13:19:52;;;;;;;52.37;41.83;;;11.70;99.90;;;;;;5119663;28;20208;-95
2022/07/05 13:22:24;;;;;;;50.33;41.70;;;11.70;99.90;;;;;;5118398;28;20224;-95
2022/07/05 13:24:58;;;;;;;54.27;43.13;;;11.80;99.90;;;;;;5114857;28;20293;-96
2022/07/05 13:27:31;;;;;;;48.20;40.77;;;11.80;99.90;;;;;;5115253;28;20194;-95
2022/07/05 13:30:05;;;;;;;51.33;42.27;;;11.90;99.90;;;;;;5118209;28;20198;-95
2022/07/05 13:32:37;;;;;;;51.87;41.03;;;12.00;99.90;;;;;;5136271;28;20206;-96
2022/07/05 13:35:11;;;;;;;50.70;41.67;;;12.00;99.90;;;;;;5135228;28;20271;-95
2022/07/05 13:37:51;;;;;;;49.30;40.50;;;12.10;99.90;;;;;;5136115;28;20210;-95